Time;durP1;ratioP1;P1;durP2;ratioP2;P2;SDS_P1;SDS_P2;PMS_P1;PMS_P2;Temp;Humidity;BMP_temperature;BMP_pressure;BME280_temperature;BME280_humidity;BME280_pressure;Samples;Min_cycle;Max_cycle;Signal;HPM_P1;HPM_P2
2022/12/25 00:03:23;;;;;;;14.90;12.98;;;;;;;;;;10275599;28;20107;-62
2022/12/25 00:08:21;;;;;;;13.52;12.07;;;;;;;;;;10275557;28;20095;-63
2022/12/25 00:13:21;;;;;;;12.77;11.38;;;;;;;;;;10276474;28;20072;-62
2022/12/25 00:18:19;;;;;;;13.05;11.20;;;;;;;;;;10309780;28;20076;-62
2022/12/25 00:23:17;;;;;;;12.93;11.52;;;;;;;;;;10311493;28;20099;-63
2022/12/25 00:28:15;;;;;;;14.98;12.20;;;;;;;;;;10309947;28;20087;-62
2022/12/25 00:33:15;;;;;;;13.88;12.20;;;;;;;;;;10310912;28;20075;-63
2022/12/25 00:38:13;;;;;;;14.60;12.07;;;;;;;;;;10312377;28;20098;-63
2022/12/25 00:43:12;;;;;;;13.50;11.18;;;;;;;;;;10312021;28;20060;-63
2022/12/25 00:48:10;;;;;;;13.90;11.60;;;;;;;;;;10313828;28;20064;-62
2022/12/25 00:53:09;;;;;;;14.82;11.93;;;;;;;;;;10316072;28;20080;-64
2022/12/25 00:58:07;;;;;;;16.85;11.48;;;;;;;;;;10298128;28;20534;-63
2022/12/25 01:03:06;;;;;;;14.57;12.60;;;;;;;;;;10315367;28;20101;-63
2022/12/25 01:08:04;;;;;;;14.35;12.27;;;;;;;;;;10315640;28;20044;-63
2022/12/25 01:13:04;;;;;;;15.10;12.57;;;;;;;;;;10315797;28;20068;-62
2022/12/25 01:18:02;;;;;;;15.63;12.70;;;;;;;;;;10315362;28;20068;-62
2022/12/25 01:23:05;;;;;;;13.68;12.27;;;;;;;;;;10314897;28;20080;-62
2022/12/25 01:28:05;;;;;;;13.95;11.75;;;;;;;;;;10315134;28;20048;-62
2022/12/25 01:33:03;;;;;;;15.88;12.98;;;;;;;;;;10297370;28;20052;-63
2022/12/25 01:38:01;;;;;;;15.20;11.88;;;;;;;;;;10319786;28;20087;-62
2022/12/25 01:43:00;;;;;;;18.05;13.68;;;;;;;;;;10323225;28;20056;-63
2022/12/25 01:48:00;;;;;;;17.85;13.05;;;;;;;;;;10322129;28;20076;-62
2022/12/25 01:52:59;;;;;;;14.30;12.80;;;;;;;;;;10322068;28;20071;-62
2022/12/25 01:57:57;;;;;;;15.27;13.65;;;;;;;;;;10322471;28;20080;-63
2022/12/25 02:02:55;;;;;;;16.80;13.38;;;;;;;;;;10323082;28;20076;-63
2022/12/25 02:07:56;;;;;;;16.00;13.10;;;;;;;;;;10322387;28;20513;-62
2022/12/25 02:12:54;;;;;;;15.88;13.73;;;;;;;;;;10321681;28;20048;-64
2022/12/25 02:17:57;;;;;;;17.95;13.63;;;;;;;;;;10322644;28;20072;-64
2022/12/25 02:23:03;;;;;;;18.25;15.45;;;;;;;;;;10322023;28;20048;-63
2022/12/25 02:28:15;;;;;;;15.30;13.60;;;;;;;;;;10320906;28;20489;-62
2022/12/25 02:38:33;;;;;;;17.10;13.45;;;;;;;;;;10320714;28;20482;-63
2022/12/25 03:31:25;;;;;;;21.52;18.08;;;;;;;;;;10318110;28;20055;-62
2022/12/25 03:36:27;;;;;;;20.90;17.05;;;;;;;;;;10318222;28;20059;-63
2022/12/25 04:39:37;;;;;;;22.52;17.52;;;;;;;;;;10315972;28;20051;-63
2022/12/25 04:44:36;;;;;;;21.80;17.83;;;;;;;;;;10315030;28;20812;-64
2022/12/25 04:49:35;;;;;;;22.05;16.88;;;;;;;;;;10316542;28;20095;-63
2022/12/25 04:54:34;;;;;;;20.42;17.92;;;;;;;;;;10316032;28;20051;-63
2022/12/25 04:59:32;;;;;;;20.20;16.88;;;;;;;;;;10316240;28;20076;-63
2022/12/25 05:04:33;;;;;;;20.40;16.02;;;;;;;;;;10315760;28;20514;-62
2022/12/25 05:09:32;;;;;;;22.80;17.90;;;;;;;;;;10315801;28;20072;-63
2022/12/25 05:14:31;;;;;;;21.88;17.00;;;;;;;;;;10328804;28;20076;-63
2022/12/25 05:19:29;;;;;;;21.42;17.85;;;;;;;;;;10329328;28;20076;-62
2022/12/25 05:24:27;;;;;;;23.50;18.25;;;;;;;;;;10327310;28;20076;-63
2022/12/25 05:29:27;;;;;;;21.65;17.63;;;;;;;;;;10310531;28;20509;-63
2022/12/25 05:34:25;;;;;;;30.48;21.70;;;;;;;;;;10328566;28;20086;-63
2022/12/25 05:39:23;;;;;;;21.77;17.45;;;;;;;;;;10328237;28;20107;-62
2022/12/25 05:44:21;;;;;;;22.25;16.88;;;;;;;;;;10328440;28;20095;-62
2022/12/25 05:49:21;;;;;;;25.73;16.77;;;;;;;;;;10328459;28;20092;-63
2022/12/25 05:54:19;;;;;;;21.17;16.42;;;;;;;;;;10328818;28;20086;-63
2022/12/25 05:59:18;;;;;;;22.67;16.75;;;;;;;;;;10328241;28;20080;-63
2022/12/25 06:04:16;;;;;;;22.63;18.58;;;;;;;;;;10328090;28;20171;-62
2022/12/25 06:09:16;;;;;;;21.70;17.38;;;;;;;;;;10328110;28;20444;-62
2022/12/25 06:14:15;;;;;;;21.58;16.85;;;;;;;;;;10327433;28;20044;-63
2022/12/25 06:19:14;;;;;;;21.65;18.85;;;;;;;;;;10309614;28;20059;-62
2022/12/25 06:24:13;;;;;;;52.78;36.00;;;;;;;;;;10307846;28;20122;-63
2022/12/25 06:29:19;;;;;;;20.80;16.10;;;;;;;;;;10320295;28;20076;-63
2022/12/25 06:34:18;;;;;;;19.23;15.25;;;;;;;;;;10320731;28;20071;-63
2022/12/25 06:39:16;;;;;;;20.73;14.93;;;;;;;;;;10321071;28;20465;-62
2022/12/25 06:44:14;;;;;;;21.67;17.60;;;;;;;;;;10320952;28;20040;-63
2022/12/25 06:49:14;;;;;;;22.42;16.85;;;;;;;;;;10319393;28;20088;-63
2022/12/25 06:54:12;;;;;;;21.13;17.65;;;;;;;;;;10274131;28;20072;-63
2022/12/25 06:59:10;;;;;;;62.13;46.40;;;;;;;;;;10277387;28;20096;-64
2022/12/25 07:04:12;;;;;;;21.58;16.25;;;;;;;;;;10275845;28;20084;-64
2022/12/25 07:09:11;;;;;;;23.90;18.15;;;;;;;;;;10275139;28;20087;-62
2022/12/25 07:14:15;;;;;;;25.77;21.55;;;;;;;;;;10275062;28;20068;-64
2022/12/25 07:19:20;;;;;;;19.10;15.43;;;;;;;;;;10276415;28;20072;-62
2022/12/25 07:24:20;;;;;;;20.92;16.60;;;;;;;;;;10278475;28;20417;-63
2022/12/25 07:29:19;;;;;;;24.95;20.50;;;;;;;;;;10278452;28;20044;-63
2022/12/25 07:34:18;;;;;;;28.33;24.40;;;;;;;;;;10276979;28;20084;-63
2022/12/25 07:39:16;;;;;;;29.15;22.50;;;;;;;;;;10278198;28;20073;-62
2022/12/25 07:44:16;;;;;;;20.88;16.45;;;;;;;;;;10278108;28;20045;-63
2022/12/25 07:49:14;;;;;;;27.15;19.35;;;;;;;;;;10260146;28;20063;-64
2022/12/25 07:54:12;;;;;;;37.97;27.90;;;;;;;;;;10277248;28;20084;-64
2022/12/25 07:59:10;;;;;;;28.60;19.15;;;;;;;;;;10259348;28;20053;-63
2022/12/25 08:04:10;;;;;;;20.65;16.75;;;;;;;;;;10277075;28;20069;-63
2022/12/25 08:09:09;;;;;;;25.88;18.88;;;;;;;;;;10276452;28;20080;-63
2022/12/25 08:14:08;;;;;;;35.55;25.77;;;;;;;;;;10276796;28;20056;-64
2022/12/25 08:19:06;;;;;;;32.00;22.05;;;;;;;;;;10276504;28;20084;-63
2022/12/25 08:24:06;;;;;;;32.15;22.88;;;;;;;;;;10275939;28;20078;-64
2022/12/25 08:29:04;;;;;;;34.28;24.02;;;;;;;;;;10276339;28;20048;-64
2022/12/25 08:34:03;;;;;;;24.42;19.13;;;;;;;;;;10275838;28;20048;-63
2022/12/25 08:39:02;;;;;;;37.78;25.77;;;;;;;;;;10275624;28;20088;-63
2022/12/25 08:44:02;;;;;;;86.65;43.35;;;;;;;;;;10274773;28;20092;-62
2022/12/25 08:49:00;;;;;;;47.22;31.85;;;;;;;;;;10275119;28;20443;-63
2022/12/25 08:53:59;;;;;;;31.48;22.70;;;;;;;;;;10275773;28;20072;-63
2022/12/25 08:58:58;;;;;;;25.35;20.00;;;;;;;;;;10274486;28;20084;-63
2022/12/25 09:03:57;;;;;;;41.85;28.83;;;;;;;;;;10275351;28;20060;-62
2022/12/25 09:08:55;;;;;;;33.40;24.42;;;;;;;;;;10257328;28;20049;-63
2022/12/25 09:13:54;;;;;;;34.17;24.60;;;;;;;;;;10275002;28;20104;-63
2022/12/25 09:18:52;;;;;;;27.52;20.92;;;;;;;;;;10274476;28;20096;-63
2022/12/25 09:23:51;;;;;;;24.98;22.27;;;;;;;;;;10274346;28;20669;-63
2022/12/25 09:28:50;;;;;;;23.52;20.75;;;;;;;;;;10274594;28;20461;-63
2022/12/25 09:33:49;;;;;;;24.95;20.05;;;;;;;;;;10273711;28;20086;-63
2022/12/25 09:38:48;;;;;;;18.05;15.23;;;;;;;;;;10273697;28;20474;-63
2022/12/25 09:43:49;;;;;;;25.88;19.98;;;;;;;;;;10274324;28;20072;-63
2022/12/25 09:48:51;;;;;;;29.33;22.27;;;;;;;;;;10274594;28;20053;-63
2022/12/25 09:53:52;;;;;;;26.05;18.73;;;;;;;;;;10274435;28;20402;-62
2022/12/25 09:58:52;;;;;;;30.80;23.55;;;;;;;;;;10259953;28;20096;-62
2022/12/25 10:03:59;;;;;;;24.60;18.80;;;;;;;;;;10281307;28;20047;-63
2022/12/25 10:09:09;;;;;;;26.40;21.55;;;;;;;;;;10261922;28;20076;-63
2022/12/25 10:14:17;;;;;;;31.52;23.58;;;;;;;;;;10298649;28;20071;-64
2022/12/25 10:19:22;;;;;;;30.45;24.40;;;;;;;;;;10320744;28;20510;-64
2022/12/25 10:24:20;;;;;;;;;;;;;;;;;;10307858;28;20072;-62
2022/12/25 10:29:20;;;;;;;24.63;20.60;;;;;;;;;;10319700;28;19920;-63
2022/12/25 10:34:18;;;;;;;31.08;24.67;;;;;;;;;;10319661;28;20045;-63
2022/12/25 10:39:17;;;;;;;34.83;27.58;;;;;;;;;;10314600;28;20080;-63
2022/12/25 10:44:19;;;;;;;42.28;34.03;;;;;;;;;;10319568;28;20071;-63
2022/12/25 10:49:20;;;;;;;26.15;21.10;;;;;;;;;;10320131;28;20087;-62
2022/12/25 10:54:22;;;;;;;26.35;22.13;;;;;;;;;;10319164;28;20051;-62
2022/12/25 10:59:21;;;;;;;24.95;18.98;;;;;;;;;;10302524;28;20473;-62
2022/12/25 11:04:21;;;;;;;33.45;26.80;;;;;;;;;;10320355;28;20548;-63
2022/12/25 11:09:19;;;;;;;28.95;20.92;;;;;;;;;;10319596;28;20049;-63
2022/12/25 11:14:19;;;;;;;21.52;19.02;;;;;;;;;;10319881;28;20037;-62
2022/12/25 11:19:26;;;;;;;21.30;17.20;;;;;;;;;;10319736;28;20076;-63
2022/12/25 11:24:26;;;;;;;20.80;17.40;;;;;;;;;;10319140;28;20083;-64
2022/12/25 11:29:29;;;;;;;27.20;21.45;;;;;;;;;;10318697;28;20044;-63
2022/12/25 11:34:30;;;;;;;22.80;20.38;;;;;;;;;;10319000;28;20107;-63
2022/12/25 11:39:29;;;;;;;25.90;21.77;;;;;;;;;;10318515;28;20072;-63
2022/12/25 11:44:35;;;;;;;22.20;17.83;;;;;;;;;;10317543;28;20076;-63
2022/12/25 11:49:38;;;;;;;27.48;24.38;;;;;;;;;;10318014;28;20421;-63
2022/12/25 11:54:40;;;;;;;23.83;19.25;;;;;;;;;;10318212;28;20079;-63
2022/12/25 11:59:45;;;;;;;23.60;20.02;;;;;;;;;;10317687;28;20068;-63
2022/12/25 12:04:46;;;;;;;23.17;18.25;;;;;;;;;;10318097;28;20076;-63
2022/12/25 12:09:48;;;;;;;21.02;19.02;;;;;;;;;;10299213;28;20052;-63
2022/12/25 12:14:49;;;;;;;51.03;45.50;;;;;;;;;;10317743;28;20040;-62
2022/12/25 12:19:49;;;;;;;29.17;23.02;;;;;;;;;;10316450;28;20048;-64
2022/12/25 12:24:52;;;;;;;30.00;22.85;;;;;;;;;;10317590;28;20071;-62
2022/12/25 12:29:51;;;;;;;21.63;18.10;;;;;;;;;;10316653;28;20525;-63
2022/12/25 12:34:51;;;;;;;22.95;17.83;;;;;;;;;;10316389;28;20045;-63
2022/12/25 12:39:52;;;;;;;24.05;19.63;;;;;;;;;;10316262;28;20498;-63
2022/12/25 12:44:50;;;;;;;27.45;22.42;;;;;;;;;;10316342;28;20049;-63
2022/12/25 12:49:56;;;;;;;22.95;17.95;;;;;;;;;;10297797;28;20060;-63
2022/12/25 12:54:58;;;;;;;25.15;19.98;;;;;;;;;;10316505;28;20044;-63
2022/12/25 12:59:57;;;;;;;31.40;28.02;;;;;;;;;;10316045;28;20079;-63
2022/12/25 13:05:08;;;;;;;18.10;13.93;;;;;;;;;;10316106;28;20044;-63
2022/12/25 13:10:13;;;;;;;29.95;26.77;;;;;;;;;;10315577;28;20087;-62
2022/12/25 13:15:12;;;;;;;26.67;20.83;;;;;;;;;;10274741;28;20073;-63
2022/12/25 13:20:17;;;;;;;17.75;15.82;;;;;;;;;;10274628;28;20083;-63
2022/12/25 13:25:19;;;;;;;26.63;22.38;;;;;;;;;;10275179;28;20079;-62
2022/12/25 13:30:19;;;;;;;37.35;26.50;;;;;;;;;;10274576;28;20049;-62
2022/12/25 13:35:17;;;;;;;56.47;38.75;;;;;;;;;;10281473;28;20087;-63
2022/12/25 13:40:21;;;;;;;33.40;24.77;;;;;;;;;;10282392;28;20081;-63
2022/12/25 13:45:21;;;;;;;20.48;15.73;;;;;;;;;;10282112;28;20053;-63
2022/12/25 13:50:21;;;;;;;24.88;18.92;;;;;;;;;;10282349;28;20053;-62
2022/12/25 13:55:22;;;;;;;37.03;26.40;;;;;;;;;;10264478;28;20056;-62
2022/12/25 14:00:21;;;;;;;25.08;20.13;;;;;;;;;;10282607;28;20450;-63
2022/12/25 14:05:27;;;;;;;84.63;54.40;;;;;;;;;;10263369;28;20045;-62
2022/12/25 14:10:28;;;;;;;26.63;21.02;;;;;;;;;;10282110;28;20072;-63
2022/12/25 14:15:28;;;;;;;25.23;18.75;;;;;;;;;;10281792;28;20048;-63
2022/12/25 14:20:27;;;;;;;28.58;23.63;;;;;;;;;;10281582;28;20087;-62
2022/12/25 14:25:29;;;;;;;36.88;32.83;;;;;;;;;;10280762;28;20064;-63
2022/12/25 14:30:28;;;;;;;49.70;38.50;;;;;;;;;;10281451;28;20045;-63
2022/12/25 14:35:27;;;;;;;27.25;22.77;;;;;;;;;;10280534;28;20445;-63
2022/12/25 14:40:29;;;;;;;29.38;26.38;;;;;;;;;;10280096;28;20480;-63
2022/12/25 14:45:29;;;;;;;25.00;22.27;;;;;;;;;;10279490;28;20056;-62
2022/12/25 14:50:29;;;;;;;31.83;26.58;;;;;;;;;;10280761;28;20391;-62
2022/12/25 14:55:29;;;;;;;33.47;26.70;;;;;;;;;;10279673;28;20033;-62
2022/12/25 15:00:30;;;;;;;37.85;33.80;;;;;;;;;;10279116;28;20072;-61
2022/12/25 15:05:30;;;;;;;36.50;32.55;;;;;;;;;;10309365;28;20060;-61
2022/12/25 15:10:30;;;;;;;25.00;22.40;;;;;;;;;;10319050;28;20064;-62
2022/12/25 15:15:50;;;;;;;21.77;18.95;;;;;;;;;;10319836;28;20052;-62
2022/12/25 15:20:51;;;;;;;20.88;17.00;;;;;;;;;;10318935;28;20083;-61
2022/12/25 15:25:50;;;;;;;19.17;16.60;;;;;;;;;;10315490;28;20040;-61
2022/12/25 15:30:49;;;;;;;34.63;24.67;;;;;;;;;;10317505;28;20108;-61
2022/12/25 15:35:47;;;;;;;23.25;18.63;;;;;;;;;;10318669;28;20041;-61
2022/12/25 15:40:46;;;;;;;30.42;22.73;;;;;;;;;;10318426;28;20158;-61
2022/12/25 15:45:46;;;;;;;24.67;17.35;;;;;;;;;;10318044;28;20049;-60
2022/12/25 15:50:45;;;;;;;41.75;34.90;;;;;;;;;;10317372;28;20064;-60
2022/12/25 15:55:44;;;;;;;63.33;42.03;;;;;;;;;;10316197;28;20072;-61
2022/12/25 16:00:42;;;;;;;54.30;32.40;;;;;;;;;;10316671;28;20071;-62
2022/12/25 16:05:42;;;;;;;162.35;113.15;;;;;;;;;;10317097;28;20040;-61
2022/12/25 16:10:40;;;;;;;214.98;140.48;;;;;;;;;;10287436;28;20055;-61
2022/12/25 16:15:38;;;;;;;43.58;27.95;;;;;;;;;;10315371;28;20060;-60
2022/12/25 16:20:36;;;;;;;48.35;33.72;;;;;;;;;;10315452;28;20083;-61
2022/12/25 16:25:36;;;;;;;96.43;73.03;;;;;;;;;;10315374;28;20067;-60
2022/12/25 16:30:34;;;;;;;55.05;41.33;;;;;;;;;;10314996;28;20072;-60
2022/12/25 16:35:32;;;;;;;57.95;44.20;;;;;;;;;;10314733;28;20525;-60
2022/12/25 16:40:31;;;;;;;67.30;48.70;;;;;;;;;;10315422;28;20462;-62
2022/12/25 16:45:31;;;;;;;111.22;87.15;;;;;;;;;;10312971;28;20064;-61
2022/12/25 16:50:29;;;;;;;50.50;35.03;;;;;;;;;;10315863;28;20461;-62
2022/12/25 16:55:27;;;;;;;28.02;21.15;;;;;;;;;;10315041;28;20411;-61
2022/12/25 17:00:27;;;;;;;28.73;22.63;;;;;;;;;;10315461;28;20079;-60
2022/12/25 17:05:27;;;;;;;30.65;24.88;;;;;;;;;;10315992;28;20041;-61
2022/12/25 17:10:25;;;;;;;23.65;19.52;;;;;;;;;;10313374;28;20079;-61
2022/12/25 17:15:23;;;;;;;21.48;18.17;;;;;;;;;;10315158;28;20044;-61
2022/12/25 17:20:21;;;;;;;30.35;22.73;;;;;;;;;;10314483;28;20068;-60
2022/12/25 17:25:21;;;;;;;32.75;22.55;;;;;;;;;;10312565;28;20072;-61
2022/12/25 17:30:19;;;;;;;25.73;20.58;;;;;;;;;;10311890;28;20041;-61
2022/12/25 17:35:20;;;;;;;24.48;19.38;;;;;;;;;;10296502;28;20049;-61
2022/12/25 17:40:18;;;;;;;32.35;24.33;;;;;;;;;;10314297;28;20072;-62
2022/12/25 17:45:18;;;;;;;34.17;25.17;;;;;;;;;;10311430;28;20088;-62
2022/12/25 17:50:17;;;;;;;35.00;28.13;;;;;;;;;;10311735;28;20057;-61
2022/12/25 17:55:15;;;;;;;29.42;19.88;;;;;;;;;;10314035;28;20069;-61
2022/12/25 18:00:13;;;;;;;26.85;20.75;;;;;;;;;;10312197;28;20067;-60
2022/12/25 18:05:13;;;;;;;30.52;21.67;;;;;;;;;;10313430;28;20422;-60
2022/12/25 18:10:13;;;;;;;54.95;33.03;;;;;;;;;;10313336;28;20045;-60
2022/12/25 18:15:12;;;;;;;63.05;37.72;;;;;;;;;;10313378;28;20041;-60
2022/12/25 18:20:10;;;;;;;37.47;24.33;;;;;;;;;;10316712;28;20084;-60
2022/12/25 18:25:10;;;;;;;25.13;19.75;;;;;;;;;;10321283;28;20450;-60
2022/12/25 18:30:09;;;;;;;19.63;15.63;;;;;;;;;;10302762;28;20050;-60
2022/12/25 18:35:07;;;;;;;19.83;17.83;;;;;;;;;;10320358;28;20091;-59
2022/12/25 18:40:06;;;;;;;19.83;17.35;;;;;;;;;;10319695;28;20064;-60
2022/12/25 18:45:07;;;;;;;17.02;14.88;;;;;;;;;;10319403;28;20072;-60
2022/12/25 18:50:07;;;;;;;15.98;12.38;;;;;;;;;;10319654;28;20079;-61
2022/12/25 18:55:06;;;;;;;12.93;11.60;;;;;;;;;;10316828;28;20083;-60
2022/12/25 19:00:06;;;;;;;43.10;27.45;;;;;;;;;;10319099;28;20064;-60
2022/12/25 19:05:05;;;;;;;34.53;25.33;;;;;;;;;;10318688;28;20080;-60
2022/12/25 19:10:04;;;;;;;36.33;29.27;;;;;;;;;;10317271;28;20071;-61
2022/12/25 19:15:02;;;;;;;34.83;24.52;;;;;;;;;;10317316;28;20097;-60
2022/12/25 19:20:01;;;;;;;21.60;18.15;;;;;;;;;;10314682;28;20060;-61
2022/12/25 19:25:00;;;;;;;28.45;18.17;;;;;;;;;;10317010;28;20568;-60
2022/12/25 19:29:58;;;;;;;18.40;16.27;;;;;;;;;;10317092;28;20528;-60
2022/12/25 19:34:56;;;;;;;18.70;15.70;;;;;;;;;;10317284;28;20446;-61
2022/12/25 19:39:56;;;;;;;17.95;14.30;;;;;;;;;;10316981;28;20068;-62
2022/12/25 19:44:54;;;;;;;21.38;17.05;;;;;;;;;;10317584;28;20064;-61
2022/12/25 19:49:52;;;;;;;19.08;13.63;;;;;;;;;;10317815;28;20052;-61
2022/12/25 19:54:58;;;;;;;19.52;15.32;;;;;;;;;;10316321;28;20520;-61
2022/12/25 19:59:56;;;;;;;23.63;18.85;;;;;;;;;;10317270;28;20108;-61
2022/12/25 20:04:55;;;;;;;21.10;17.08;;;;;;;;;;10316253;28;20064;-61
2022/12/25 20:09:53;;;;;;;22.50;16.85;;;;;;;;;;10315222;28;20040;-60
2022/12/25 20:14:54;;;;;;;26.42;20.63;;;;;;;;;;10314147;28;20076;-60
2022/12/25 20:19:52;;;;;;;18.15;15.57;;;;;;;;;;10316156;28;20078;-60
2022/12/25 20:24:50;;;;;;;61.50;44.22;;;;;;;;;;10311709;28;20079;-60
2022/12/25 20:29:48;;;;;;;17.52;13.85;;;;;;;;;;10314478;28;20072;-58
2022/12/25 20:34:48;;;;;;;22.05;19.63;;;;;;;;;;10295803;28;20040;-59
2022/12/25 20:39:46;;;;;;;16.30;14.55;;;;;;;;;;10297487;28;20048;-60
2022/12/25 20:44:44;;;;;;;25.42;16.98;;;;;;;;;;10314552;28;20466;-60
2022/12/25 20:49:43;;;;;;;22.80;18.45;;;;;;;;;;10314963;28;20072;-59
2022/12/25 20:54:42;;;;;;;24.92;17.75;;;;;;;;;;10314592;28;20083;-60
2022/12/25 20:59:42;;;;;;;17.73;13.30;;;;;;;;;;10297931;28;20044;-60
2022/12/25 21:04:41;;;;;;;22.45;15.70;;;;;;;;;;10314403;28;20476;-59
2022/12/25 21:09:39;;;;;;;15.80;12.55;;;;;;;;;;10296647;28;20067;-59
2022/12/25 21:14:39;;;;;;;17.98;13.52;;;;;;;;;;10315031;28;20466;-59
2022/12/25 21:19:37;;;;;;;17.15;12.98;;;;;;;;;;10314268;28;20063;-60
2022/12/25 21:24:36;;;;;;;15.88;11.93;;;;;;;;;;10314696;28;20085;-59
2022/12/25 21:29:34;;;;;;;15.48;11.50;;;;;;;;;;10314222;28;20045;-59
2022/12/25 21:34:34;;;;;;;15.88;10.60;;;;;;;;;;10314833;28;20040;-61
2022/12/25 21:39:32;;;;;;;12.77;9.60;;;;;;;;;;10313571;28;20068;-59
2022/12/25 21:44:30;;;;;;;15.15;10.15;;;;;;;;;;10311372;28;20473;-61
2022/12/25 21:54:45;;;;;;;12.63;10.43;;;;;;;;;;10318401;28;20045;-60
2022/12/25 21:59:44;;;;;;;11.68;9.25;;;;;;;;;;10320646;28;20470;-60
2022/12/25 22:04:42;;;;;;;13.23;9.38;;;;;;;;;;10304306;28;20055;-61
2022/12/25 22:09:40;;;;;;;11.48;8.65;;;;;;;;;;10322798;28;20075;-61
2022/12/25 22:14:50;;;;;;;10.88;7.78;;;;;;;;;;10321533;28;20045;-60
2022/12/25 22:19:56;;;;;;;13.75;11.52;;;;;;;;;;10320827;28;20494;-61
2022/12/25 22:24:55;;;;;;;14.63;10.02;;;;;;;;;;10321594;28;20072;-62
2022/12/25 22:29:54;;;;;;;15.63;10.25;;;;;;;;;;10322164;28;20044;-61
2022/12/25 22:34:52;;;;;;;11.02;9.23;;;;;;;;;;10321163;28;20429;-61
2022/12/25 22:39:51;;;;;;;12.38;11.07;;;;;;;;;;10320883;28;20394;-61
2022/12/25 22:44:49;;;;;;;10.70;9.07;;;;;;;;;;10320462;28;20255;-61
2022/12/25 22:49:48;;;;;;;11.48;10.02;;;;;;;;;;10320873;28;20084;-60
2022/12/25 22:54:47;;;;;;;13.75;8.90;;;;;;;;;;10320909;28;20493;-60
2022/12/25 22:59:45;;;;;;;14.43;9.30;;;;;;;;;;10320175;28;20049;-62
2022/12/25 23:04:43;;;;;;;11.82;9.05;;;;;;;;;;10319198;28;20189;-60
2022/12/25 23:09:43;;;;;;;11.48;9.77;;;;;;;;;;10319185;28;20513;-60
2022/12/25 23:14:41;;;;;;;14.55;8.80;;;;;;;;;;10320478;28;20058;-60
2022/12/25 23:30:15;;;;;;;22.50;17.45;;;;;;;;;;10302485;28;20282;-61
2022/12/25 23:35:13;;;;;;;34.83;19.08;;;;;;;;;;10318993;28;20140;-61
2022/12/25 23:40:12;;;;;;;36.05;22.20;;;;;;;;;;10318779;28;20079;-61
2022/12/25 23:45:12;;;;;;;41.58;26.00;;;;;;;;;;10318968;28;20109;-60
2022/12/25 23:50:12;;;;;;;27.15;17.95;;;;;;;;;;10317726;28;20552;-60
2022/12/25 23:55:10;;;;;;;19.00;12.32;;;;;;;;;;10318443;28;20572;-61
